Time;durP1;ratioP1;P1;durP2;ratioP2;P2;SDS_P1;SDS_P2;PMS_P1;PMS_P2;Temp;Humidity;BMP_temperature;BMP_pressure;BME280_temperature;BME280_humidity;BME280_pressure;Samples;Min_cycle;Max_cycle;Signal;HPM_P1;HPM_P2
2023/01/12 00:01:48;;;;;;;7.10;4.37;;;9.10;99.90;;;;;;4979633;28;20459;-84
2023/01/12 00:04:50;;;;;;;8.00;4.70;;;9.00;99.90;;;;;;4959708;29;20951;-84
2023/01/12 00:07:17;;;;;;;20.93;11.67;;;9.10;99.90;;;;;;4971527;28;20462;-84
2023/01/12 00:09:44;;;;;;;9.97;9.07;;;9.00;99.90;;;;;;4981399;28;20479;-84
2023/01/12 00:12:12;;;;;;;10.10;9.07;;;9.00;99.90;;;;;;4981097;28;20574;-84
2023/01/12 00:14:39;;;;;;;14.47;13.17;;;9.00;99.90;;;;;;4981223;28;20451;-84
2023/01/12 00:17:06;;;;;;;12.33;8.17;;;8.90;99.90;;;;;;4980959;28;20447;-84
2023/01/12 00:19:33;;;;;;;10.90;9.77;;;9.00;99.90;;;;;;4981289;28;20473;-84
2023/01/12 00:22:07;;;;;;;10.33;9.43;;;8.90;99.90;;;;;;4981376;28;20447;-83
2023/01/12 00:24:36;;;;;;;12.20;9.33;;;8.90;99.90;;;;;;4981495;28;20485;-84
2023/01/12 00:27:04;;;;;;;16.67;15.30;;;8.90;99.90;;;;;;4981146;28;20474;-83
2023/01/12 00:32:00;;;;;;;18.47;16.97;;;8.90;99.90;;;;;;5021147;23;20532;-82
2023/01/12 00:34:27;;;;;;;23.60;22.30;;;8.80;99.90;;;;;;5000684;28;21034;-81
2023/01/12 00:36:54;;;;;;;36.07;33.67;;;8.60;99.90;;;;;;5000821;28;20458;-81
2023/01/12 00:39:22;;;;;;;34.03;32.00;;;8.80;99.90;;;;;;4985489;28;20816;-81
2023/01/12 00:47:19;;;;;;;29.27;27.20;;;8.80;99.90;;;;;;5000335;28;20868;-81
2023/01/12 00:49:46;;;;;;;42.80;39.43;;;9.00;99.90;;;;;;5000359;28;20454;-81
2023/01/12 00:52:14;;;;;;;28.63;26.40;;;8.90;99.90;;;;;;5000309;28;20486;-82
2023/01/12 00:54:41;;;;;;;26.33;25.03;;;8.90;99.90;;;;;;5000775;28;20470;-81
2023/01/12 00:57:09;;;;;;;58.80;55.77;;;8.90;99.90;;;;;;5000847;28;20454;-81
2023/01/12 00:59:36;;;;;;;56.00;52.50;;;8.90;99.90;;;;;;4981290;28;20478;-81
2023/01/12 01:02:03;;;;;;;45.93;43.73;;;8.80;99.90;;;;;;4981059;28;20455;-83
2023/01/12 01:04:33;;;;;;;35.77;33.57;;;8.90;99.90;;;;;;4999884;28;20453;-81
2023/01/12 01:07:00;;;;;;;44.23;41.40;;;9.00;99.90;;;;;;5000987;28;20450;-82
2023/01/12 01:09:26;;;;;;;35.53;33.67;;;8.90;99.90;;;;;;5001051;28;20450;-82
2023/01/12 01:11:53;;;;;;;55.20;52.70;;;8.90;99.90;;;;;;5000390;28;20485;-81
2023/01/12 01:14:20;;;;;;;59.83;56.33;;;8.90;99.90;;;;;;5000896;28;20474;-81
2023/01/12 01:16:47;;;;;;;45.27;42.97;;;8.90;99.90;;;;;;5000765;28;20861;-82
2023/01/12 01:19:13;;;;;;;52.60;50.17;;;9.00;99.90;;;;;;5000386;28;20461;-82
2023/01/12 01:21:42;;;;;;;56.07;53.00;;;8.80;99.90;;;;;;4999927;28;20481;-82
2023/01/12 01:24:12;;;;;;;51.77;48.30;;;8.90;99.90;;;;;;4999999;28;20461;-81
2023/01/12 01:26:40;;;;;;;57.73;54.53;;;8.80;99.90;;;;;;5000740;28;20458;-82
2023/01/12 01:29:07;;;;;;;53.67;50.67;;;8.90;99.90;;;;;;5000692;28;20991;-82
2023/01/12 01:31:34;;;;;;;46.87;43.27;;;8.90;99.90;;;;;;5000112;28;20478;-82
2023/01/12 01:34:01;;;;;;;41.47;39.17;;;8.90;99.90;;;;;;5000467;28;20501;-82
2023/01/12 01:36:28;;;;;;;44.50;42.00;;;8.90;99.90;;;;;;5000231;28;20473;-83
2023/01/12 01:38:56;;;;;;;68.40;65.40;;;8.90;99.90;;;;;;5001511;28;20454;-82
2023/01/12 01:41:25;;;;;;;66.13;62.93;;;8.90;99.90;;;;;;5004114;28;20484;-82
2023/01/12 01:43:55;;;;;;;61.13;57.90;;;8.90;99.90;;;;;;5004835;28;20445;-82
2023/01/12 01:46:33;;;;;;;43.93;41.97;;;8.80;99.90;;;;;;5004517;28;20457;-82
2023/01/12 01:49:10;;;;;;;43.90;41.20;;;8.80;99.90;;;;;;5004371;28;20453;-82
2023/01/12 01:51:37;;;;;;;28.90;27.40;;;8.90;99.90;;;;;;5005701;28;20474;-82
2023/01/12 01:54:05;;;;;;;25.17;23.40;;;8.90;99.90;;;;;;5005119;28;20553;-83
2023/01/12 01:56:33;;;;;;;22.80;20.50;;;8.90;99.90;;;;;;5004890;28;20473;-82
2023/01/12 01:59:05;;;;;;;18.67;17.07;;;9.00;99.90;;;;;;5005145;28;20449;-83
2023/01/12 02:01:32;;;;;;;23.67;17.80;;;9.00;99.90;;;;;;5006148;28;20483;-82
2023/01/12 02:04:00;;;;;;;27.37;13.73;;;9.10;99.90;;;;;;5005728;28;20457;-83
2023/01/12 02:06:28;;;;;;;12.70;11.60;;;9.10;99.90;;;;;;5006388;28;20517;-82
2023/01/12 02:08:58;;;;;;;10.70;8.30;;;9.20;99.90;;;;;;5006822;28;20450;-82
2023/01/12 02:17:12;;;;;;;20.50;7.90;;;9.30;99.90;;;;;;5004548;28;20561;-83
2023/01/12 02:20:13;;;;;;;17.60;6.10;;;9.30;99.90;;;;;;5004892;28;20438;-82
2023/01/12 02:23:09;;;;;;;7.27;3.50;;;9.30;99.90;;;;;;5004505;28;20455;-82
2023/01/12 02:26:07;;;;;;;10.63;3.50;;;9.40;99.90;;;;;;5003776;28;20441;-82
2023/01/12 02:29:00;;;;;;;20.97;5.13;;;9.40;99.90;;;;;;5003997;28;20824;-82
2023/01/12 02:31:43;;;;;;;11.80;4.00;;;9.40;99.90;;;;;;5003534;28;20489;-82
2023/01/12 02:34:24;;;;;;;22.00;5.50;;;9.40;99.90;;;;;;5003476;28;20469;-82
2023/01/12 02:36:57;;;;;;;12.70;3.00;;;9.40;99.90;;;;;;5002805;28;20450;-82
2023/01/12 02:39:28;;;;;;;15.07;3.67;;;9.50;99.90;;;;;;5002621;28;20512;-82
2023/01/12 02:44:58;;;;;;;15.53;3.90;;;9.50;99.90;;;;;;5003295;28;20542;-81
2023/01/12 02:47:35;;;;;;;10.03;4.23;;;9.50;99.90;;;;;;5002799;28;20819;-80
2023/01/12 02:50:08;;;;;;;12.77;3.37;;;9.50;99.90;;;;;;5003545;28;20477;-81
2023/01/12 02:52:35;;;;;;;12.30;3.80;;;9.40;99.90;;;;;;5002614;28;20447;-82
2023/01/12 02:55:04;;;;;;;21.17;6.70;;;9.40;99.90;;;;;;5002282;28;20489;-82
2023/01/12 02:57:34;;;;;;;17.20;10.77;;;9.30;99.90;;;;;;5002925;28;20960;-81
2023/01/12 03:00:01;;;;;;;14.83;13.87;;;9.30;99.90;;;;;;5003335;28;20482;-81
2023/01/12 03:02:30;;;;;;;24.37;22.60;;;9.20;99.90;;;;;;5002987;28;20466;-81
2023/01/12 03:04:57;;;;;;;34.10;31.73;;;9.10;99.90;;;;;;5002666;28;20450;-81
2023/01/12 03:07:41;;;;;;;47.23;45.03;;;9.00;99.90;;;;;;5003173;28;20458;-83
2023/01/12 03:10:19;;;;;;;122.57;117.27;;;9.00;99.90;;;;;;5002607;28;20470;-82
2023/01/12 03:12:47;;;;;;;162.87;157.10;;;8.90;99.90;;;;;;5003224;28;20485;-82
2023/01/12 03:15:17;;;;;;;221.37;212.83;;;8.90;99.90;;;;;;5002588;28;20492;-82
2023/01/12 03:17:51;;;;;;;216.40;208.47;;;8.90;99.90;;;;;;5002300;28;20960;-84
2023/01/12 03:20:25;;;;;;;239.00;229.93;;;8.90;99.90;;;;;;5002447;28;20484;-80
2023/01/12 03:22:57;;;;;;;281.87;271.80;;;8.90;99.90;;;;;;5002893;28;20454;-82
2023/01/12 03:25:26;;;;;;;283.60;273.07;;;8.80;99.90;;;;;;5003139;28;20450;-82
2023/01/12 03:27:56;;;;;;;268.80;259.17;;;8.90;99.90;;;;;;5003065;28;20454;-82
2023/01/12 03:30:30;;;;;;;255.53;246.83;;;8.80;99.90;;;;;;5003335;28;20478;-82
2023/01/12 03:32:58;;;;;;;191.33;184.47;;;8.90;99.90;;;;;;5004070;28;20451;-81
2023/01/12 03:35:27;;;;;;;251.23;242.47;;;9.00;99.90;;;;;;5002721;28;20996;-82
2023/01/12 03:37:58;;;;;;;257.13;248.13;;;9.00;99.90;;;;;;5003413;28;20461;-82
2023/01/12 03:40:32;;;;;;;279.00;269.40;;;8.90;99.90;;;;;;5003344;28;20504;-82
2023/01/12 03:43:05;;;;;;;232.47;223.87;;;8.90;99.90;;;;;;5001899;28;20446;-82
2023/01/12 03:45:39;;;;;;;269.27;259.90;;;9.00;99.90;;;;;;5002424;28;20815;-82
2023/01/12 03:48:12;;;;;;;281.20;271.47;;;8.90;99.90;;;;;;5001624;28;20461;-83
2023/01/12 03:50:44;;;;;;;297.43;286.37;;;8.90;99.90;;;;;;5001844;28;20566;-82
2023/01/12 03:53:13;;;;;;;264.00;253.80;;;8.80;99.90;;;;;;5002193;28;20458;-82
2023/01/12 03:55:42;;;;;;;185.00;178.13;;;9.00;99.90;;;;;;5002122;28;20442;-84
2023/01/12 03:58:12;;;;;;;180.67;174.30;;;9.00;99.90;;;;;;5001920;28;20446;-82
2023/01/12 04:00:39;;;;;;;110.97;106.60;;;9.00;99.90;;;;;;5002031;28;20466;-82
2023/01/12 04:03:12;;;;;;;83.37;79.40;;;9.10;99.90;;;;;;5002266;28;20477;-81
2023/01/12 04:05:40;;;;;;;83.50;80.47;;;9.20;99.90;;;;;;5003179;28;20453;-79
2023/01/12 04:08:08;;;;;;;72.63;69.83;;;9.30;99.90;;;;;;4980744;28;20460;-83
2023/01/12 04:10:35;;;;;;;46.57;44.23;;;9.20;99.90;;;;;;4996447;28;20552;-80
2023/01/12 04:13:02;;;;;;;43.47;41.47;;;9.30;99.90;;;;;;4999950;28;20453;-81
2023/01/12 04:15:28;;;;;;;49.77;47.20;;;9.30;99.90;;;;;;4999639;28;20482;-82
2023/01/12 04:17:55;;;;;;;59.30;56.50;;;9.20;99.90;;;;;;5001282;28;20458;-81
2023/01/12 04:20:24;;;;;;;34.70;32.47;;;9.30;99.90;;;;;;5017861;28;20465;-82
2023/01/12 04:22:49;;;;;;;37.70;35.23;;;9.40;99.90;;;;;;5020973;28;20464;-81
2023/01/12 04:25:18;;;;;;;31.50;29.53;;;9.30;99.90;;;;;;5021081;28;20453;-81
2023/01/12 04:27:47;;;;;;;47.97;45.20;;;9.30;99.90;;;;;;5020680;28;20269;-81
2023/01/12 04:30:15;;;;;;;48.20;45.67;;;9.30;99.90;;;;;;5020635;28;20477;-81
2023/01/12 04:32:43;;;;;;;46.67;44.23;;;9.30;99.90;;;;;;5021371;28;20449;-82
2023/01/12 04:35:11;;;;;;;71.80;68.80;;;9.30;99.90;;;;;;5021403;28;20493;-82
2023/01/12 04:37:40;;;;;;;119.43;114.93;;;9.20;99.90;;;;;;5019666;28;20461;-81
2023/01/12 04:40:09;;;;;;;129.83;125.27;;;9.10;99.90;;;;;;5019276;28;20473;-81
2023/01/12 04:45:22;;;;;;;194.03;187.53;;;8.90;99.90;;;;;;5020252;28;20436;-81
2023/01/12 04:47:48;;;;;;;258.07;249.57;;;8.90;99.90;;;;;;5020462;28;20461;-81
2023/01/12 04:50:15;;;;;;;205.63;198.73;;;8.90;99.90;;;;;;5019721;28;20469;-81
2023/01/12 04:52:44;;;;;;;224.33;216.77;;;8.90;99.90;;;;;;5020171;28;20460;-83
2023/01/12 04:55:11;;;;;;;260.70;252.37;;;8.80;99.90;;;;;;5020259;28;20619;-82
2023/01/12 04:57:38;;;;;;;323.23;312.57;;;8.80;99.90;;;;;;5021162;28;20453;-82
2023/01/12 05:00:06;;;;;;;358.47;346.50;;;8.80;99.90;;;;;;5020859;28;20474;-84
2023/01/12 05:02:33;;;;;;;330.83;319.53;;;8.70;99.90;;;;;;5021376;28;20453;-81
2023/01/12 05:05:00;;;;;;;368.37;355.23;;;8.70;99.90;;;;;;5020497;28;20449;-81
2023/01/12 05:07:26;;;;;;;385.83;371.97;;;8.70;99.90;;;;;;5020614;28;20464;-81
2023/01/12 05:12:53;;;;;;;402.40;387.20;;;8.70;99.90;;;;;;4965657;28;20455;-82
2023/01/12 05:15:20;;;;;;;257.07;248.77;;;8.60;99.90;;;;;;4961908;28;21048;-81
2023/01/12 05:17:47;;;;;;;361.80;348.80;;;8.70;99.90;;;;;;4981626;28;20455;-82
2023/01/12 05:20:14;;;;;;;436.70;419.97;;;8.60;99.90;;;;;;5004962;28;20470;-84
2023/01/12 05:22:41;;;;;;;492.40;471.50;;;8.70;99.90;;;;;;5005647;28;20454;-83
2023/01/12 05:25:10;;;;;;;537.77;513.10;;;8.60;99.90;;;;;;5005113;28;20825;-79
2023/01/12 05:27:37;;;;;;;514.23;492.13;;;8.60;99.90;;;;;;5003169;28;20450;-81
2023/01/12 05:30:04;;;;;;;530.43;506.93;;;8.50;99.90;;;;;;5004111;28;20488;-81
2023/01/12 05:32:35;;;;;;;513.10;491.13;;;8.60;99.90;;;;;;5004559;28;20450;-82
2023/01/12 05:35:02;;;;;;;477.37;458.30;;;8.50;99.90;;;;;;5003874;28;20478;-82
2023/01/12 05:37:29;;;;;;;544.97;519.57;;;8.50;99.90;;;;;;5003965;28;20500;-80
2023/01/12 05:39:55;;;;;;;426.43;410.33;;;8.40;99.90;;;;;;5002834;28;20465;-82
2023/01/12 05:45:16;;;;;;;464.20;445.33;;;8.40;99.90;;;;;;4990030;28;20898;-82
2023/01/12 05:47:43;;;;;;;418.67;402.67;;;8.40;99.90;;;;;;5003989;28;20450;-80
2023/01/12 05:50:10;;;;;;;363.13;349.60;;;8.30;99.90;;;;;;5003441;28;20469;-81
2023/01/12 05:52:37;;;;;;;382.40;368.30;;;8.30;99.90;;;;;;5003706;28;20949;-80
2023/01/12 05:55:16;;;;;;;324.47;312.53;;;8.30;99.90;;;;;;5003120;28;20480;-82
2023/01/12 05:57:44;;;;;;;347.40;334.50;;;8.30;99.90;;;;;;5004286;28;20504;-83
2023/01/12 06:00:12;;;;;;;311.27;300.60;;;8.30;99.90;;;;;;5002772;28;20474;-81
2023/01/12 06:02:56;;;;;;;368.93;355.57;;;8.30;99.90;;;;;;5003662;28;20453;-81
2023/01/12 06:05:23;;;;;;;391.27;376.57;;;8.30;99.90;;;;;;5001817;28;20458;-81
2023/01/12 06:07:55;;;;;;;411.67;395.57;;;8.30;99.90;;;;;;5001564;28;20450;-80
2023/01/12 06:10:22;;;;;;;371.00;357.23;;;8.30;99.90;;;;;;4996164;28;20488;-82
2023/01/12 06:15:35;;;;;;;349.57;336.87;;;8.40;99.90;;;;;;4994830;28;20470;-81
2023/01/12 06:18:02;;;;;;;439.93;422.23;;;8.40;99.90;;;;;;4996493;28;20452;-81
2023/01/12 06:20:29;;;;;;;422.93;406.50;;;8.30;99.90;;;;;;4990391;28;20476;-82
2023/01/12 06:22:56;;;;;;;471.90;451.47;;;8.40;99.90;;;;;;5003095;28;20473;-80
2023/01/12 06:25:22;;;;;;;551.37;524.23;;;8.40;99.90;;;;;;5001797;28;20522;-81
2023/01/12 06:27:50;;;;;;;492.93;470.30;;;8.50;99.90;;;;;;5002187;28;20812;-81
2023/01/12 06:30:18;;;;;;;550.67;523.13;;;8.60;99.90;;;;;;5002316;28;20486;-80
2023/01/12 06:32:44;;;;;;;568.07;538.33;;;8.50;99.90;;;;;;5002175;28;20450;-81
2023/01/12 06:35:11;;;;;;;591.87;559.17;;;8.50;99.90;;;;;;5001269;28;20478;-80
2023/01/12 06:37:38;;;;;;;601.37;566.67;;;8.60;99.90;;;;;;5002521;28;20454;-81
2023/01/12 06:40:06;;;;;;;571.60;540.93;;;8.70;99.90;;;;;;5002952;28;20477;-80
2023/01/12 06:42:32;;;;;;;570.87;540.10;;;8.70;99.90;;;;;;5002387;28;20796;-81
2023/01/12 06:45:02;;;;;;;560.70;531.07;;;8.80;99.90;;;;;;5001874;28;20500;-81
2023/01/12 06:47:30;;;;;;;568.87;537.60;;;8.80;99.90;;;;;;5002577;28;20454;-81
2023/01/12 06:49:57;;;;;;;551.27;523.17;;;8.80;99.90;;;;;;5003041;28;20470;-81
2023/01/12 06:52:25;;;;;;;552.13;522.47;;;8.90;99.90;;;;;;5002851;28;20460;-81
2023/01/12 06:54:53;;;;;;;545.20;516.53;;;8.90;99.90;;;;;;5002188;28;20470;-83
2023/01/12 06:57:20;;;;;;;553.40;524.40;;;8.80;99.90;;;;;;5000769;28;20460;-84
2023/01/12 06:59:47;;;;;;;549.13;521.17;;;8.90;99.90;;;;;;5000763;28;20466;-81
2023/01/12 07:02:16;;;;;;;554.67;526.70;;;8.90;99.90;;;;;;5000647;28;20462;-80
2023/01/12 07:04:43;;;;;;;548.77;519.97;;;8.90;99.90;;;;;;5001193;28;20450;-82
2023/01/12 07:07:12;;;;;;;561.63;532.83;;;8.80;99.90;;;;;;4996672;28;20481;-81
2023/01/12 07:09:39;;;;;;;547.63;520.43;;;8.80;99.90;;;;;;5000194;28;20458;-81
2023/01/12 07:12:06;;;;;;;569.73;540.27;;;8.90;99.90;;;;;;5001599;28;20458;-80
2023/01/12 07:14:35;;;;;;;585.10;553.37;;;8.90;99.90;;;;;;5000840;28;20485;-81
2023/01/12 07:17:02;;;;;;;569.70;539.90;;;8.90;99.90;;;;;;5002130;28;20454;-81
2023/01/12 07:19:30;;;;;;;575.73;545.03;;;9.00;99.90;;;;;;5000766;28;20490;-81
2023/01/12 07:21:57;;;;;;;574.27;543.57;;;8.90;99.90;;;;;;5001077;28;20481;-82
2023/01/12 07:24:23;;;;;;;587.00;555.57;;;9.00;99.90;;;;;;5000985;28;20481;-81
2023/01/12 07:26:51;;;;;;;575.67;544.57;;;9.00;99.90;;;;;;5000390;28;20453;-81
2023/01/12 07:29:19;;;;;;;584.07;549.77;;;8.90;99.90;;;;;;5001271;28;20450;-81
2023/01/12 07:31:48;;;;;;;618.40;580.77;;;8.80;99.90;;;;;;5001993;28;20484;-81
2023/01/12 07:34:15;;;;;;;615.03;576.43;;;8.80;99.90;;;;;;5001416;28;20500;-79
2023/01/12 07:36:43;;;;;;;615.03;579.00;;;8.80;99.90;;;;;;5001329;28;20485;-81
2023/01/12 07:39:12;;;;;;;621.53;584.17;;;8.80;99.90;;;;;;5000745;28;20477;-81
2023/01/12 07:44:23;;;;;;;607.90;572.23;;;8.80;99.90;;;;;;5001304;28;20441;-81
2023/01/12 07:46:50;;;;;;;604.40;568.60;;;8.80;99.90;;;;;;5001480;28;20462;-81
2023/01/12 07:49:17;;;;;;;590.17;554.10;;;8.90;99.90;;;;;;5000901;28;20450;-80
2023/01/12 07:51:45;;;;;;;611.03;573.47;;;8.90;99.90;;;;;;5000853;28;20506;-81
2023/01/12 07:54:12;;;;;;;591.00;556.20;;;8.90;99.90;;;;;;5001616;28;20529;-79
2023/01/12 07:56:38;;;;;;;611.47;573.47;;;8.90;99.90;;;;;;5000954;28;20485;-81
2023/01/12 07:59:05;;;;;;;606.73;571.87;;;8.90;99.90;;;;;;5000881;28;20456;-81
2023/01/12 08:01:34;;;;;;;608.60;574.20;;;9.00;99.90;;;;;;5000273;28;20470;-81
2023/01/12 08:04:01;;;;;;;593.97;559.37;;;9.00;99.90;;;;;;5000722;28;20477;-82
2023/01/12 08:06:27;;;;;;;551.40;523.00;;;9.00;99.90;;;;;;5000516;28;20454;-81
2023/01/12 08:08:56;;;;;;;540.97;512.27;;;9.00;99.90;;;;;;5001267;28;20465;-81
2023/01/12 08:11:22;;;;;;;569.57;536.90;;;9.10;99.90;;;;;;5001620;28;20471;-81
2023/01/12 08:13:53;;;;;;;545.70;517.40;;;9.10;99.90;;;;;;5000800;28;20706;-81
2023/01/12 08:16:23;;;;;;;558.90;527.43;;;9.10;99.90;;;;;;5000428;28;20497;-80
2023/01/12 08:18:54;;;;;;;561.50;532.10;;;9.10;99.90;;;;;;5001058;28;20972;-82
2023/01/12 08:21:24;;;;;;;598.63;564.03;;;9.10;99.90;;;;;;5001491;28;20488;-81
2023/01/12 08:23:54;;;;;;;585.87;553.73;;;9.10;99.90;;;;;;5000917;28;20454;-80
2023/01/12 08:26:27;;;;;;;588.93;556.13;;;9.20;99.90;;;;;;5000162;28;21007;-81
2023/01/12 08:28:59;;;;;;;561.47;532.43;;;9.20;99.90;;;;;;5001502;28;20450;-82
2023/01/12 08:31:26;;;;;;;548.47;519.47;;;9.30;99.90;;;;;;5000821;28;20513;-81
2023/01/12 08:33:55;;;;;;;518.70;491.70;;;9.30;99.90;;;;;;5001833;28;20454;-83
2023/01/12 08:36:25;;;;;;;467.93;445.30;;;9.30;99.90;;;;;;5001754;28;20481;-81
2023/01/12 08:38:52;;;;;;;489.10;466.20;;;9.30;99.90;;;;;;5002121;28;20445;-81
2023/01/12 08:41:36;;;;;;;476.80;454.30;;;9.30;99.90;;;;;;5001431;28;20477;-82
2023/01/12 08:44:07;;;;;;;501.53;477.63;;;9.40;99.90;;;;;;5001573;28;20518;-82
2023/01/12 08:46:38;;;;;;;493.20;469.87;;;9.50;99.90;;;;;;5001178;28;20434;-81
2023/01/12 08:49:10;;;;;;;541.73;513.47;;;9.40;99.90;;;;;;5001003;28;20442;-83
2023/01/12 08:51:39;;;;;;;511.10;485.53;;;9.40;99.90;;;;;;5001471;28;20501;-82
2023/01/12 08:54:06;;;;;;;530.93;503.57;;;9.50;99.90;;;;;;5002601;28;20450;-82
2023/01/12 08:56:34;;;;;;;511.00;485.70;;;9.30;99.90;;;;;;5001152;28;20481;-81
2023/01/12 08:59:00;;;;;;;517.73;491.13;;;9.40;99.90;;;;;;5001946;28;20458;-82
2023/01/12 09:01:29;;;;;;;541.77;513.07;;;9.50;99.90;;;;;;5001629;28;20477;-82
2023/01/12 09:03:57;;;;;;;556.63;526.23;;;9.50;99.90;;;;;;5001785;28;20469;-83
2023/01/12 09:06:25;;;;;;;537.17;509.17;;;9.50;99.90;;;;;;5001465;28;20462;-81
2023/01/12 09:08:54;;;;;;;544.30;515.37;;;9.50;99.90;;;;;;5001732;28;20476;-82
2023/01/12 09:11:21;;;;;;;534.60;507.20;;;9.60;99.90;;;;;;5001566;28;20478;-81
2023/01/12 09:13:48;;;;;;;512.67;487.10;;;9.70;99.90;;;;;;5001536;28;20464;-81
2023/01/12 09:16:17;;;;;;;508.83;483.93;;;9.70;99.90;;;;;;5001767;28;20508;-82
2023/01/12 09:18:46;;;;;;;503.07;478.07;;;9.80;99.90;;;;;;5001862;28;20458;-82
2023/01/12 09:21:14;;;;;;;530.43;502.90;;;9.80;99.90;;;;;;5001339;28;20470;-82
2023/01/12 09:23:42;;;;;;;527.03;499.27;;;9.80;99.90;;;;;;5001962;28;20454;-82
2023/01/12 09:26:11;;;;;;;506.97;482.27;;;9.80;99.90;;;;;;5001494;28;20552;-82
2023/01/12 09:28:38;;;;;;;521.87;495.37;;;9.90;99.90;;;;;;5001584;28;20840;-82
2023/01/12 09:31:06;;;;;;;515.60;489.67;;;9.80;99.90;;;;;;5001090;28;20478;-81
2023/01/12 09:33:34;;;;;;;468.30;446.97;;;9.90;99.90;;;;;;5001742;28;20481;-82
2023/01/12 09:36:04;;;;;;;505.47;480.67;;;10.00;99.90;;;;;;5001249;28;20489;-82
2023/01/12 09:38:35;;;;;;;491.30;467.97;;;9.90;99.90;;;;;;5001433;28;20458;-82
2023/01/12 09:41:08;;;;;;;505.47;481.47;;;9.90;99.90;;;;;;5001467;28;20466;-82
2023/01/12 09:49:14;;;;;;;569.95;538.13;;;9.90;99.90;;;;;;4999818;28;20447;-82
2023/01/12 09:51:50;;;;;;;542.37;512.63;;;9.80;99.90;;;;;;4999553;28;20464;-82
2023/01/12 09:54:18;;;;;;;539.40;512.10;;;9.80;99.90;;;;;;5001606;28;20449;-82
2023/01/12 09:56:51;;;;;;;541.67;514.00;;;9.90;99.90;;;;;;5000608;28;20482;-82
2023/01/12 09:59:30;;;;;;;509.97;484.63;;;9.90;99.90;;;;;;5002119;28;20469;-82
2023/01/12 10:01:57;;;;;;;498.57;474.37;;;10.00;99.90;;;;;;5004711;28;20485;-83
2023/01/12 10:04:24;;;;;;;475.07;452.97;;;10.00;99.90;;;;;;5005143;28;20525;-82
2023/01/12 10:06:52;;;;;;;452.17;431.17;;;10.10;99.90;;;;;;5005725;28;20446;-82
2023/01/12 10:09:21;;;;;;;488.42;464.42;;;10.20;99.90;;;;;;5002675;28;20459;-82
2023/01/12 10:11:54;;;;;;;441.13;421.50;;;10.20;99.90;;;;;;5004370;28;20230;-82
2023/01/12 10:14:48;;;;;;;408.67;390.87;;;10.30;99.90;;;;;;5004808;28;20454;-81
2023/01/12 10:17:26;;;;;;;383.90;367.83;;;10.30;99.90;;;;;;4975529;28;20481;-82
2023/01/12 10:20:00;;;;;;;362.50;347.17;;;10.30;99.90;;;;;;5005045;28;20450;-82
2023/01/12 10:22:38;;;;;;;392.10;375.63;;;10.30;99.90;;;;;;5005126;28;20450;-82
2023/01/12 10:25:26;;;;;;;422.77;404.37;;;10.20;99.90;;;;;;5005302;28;20526;-83
2023/01/12 10:27:55;;;;;;;415.30;397.60;;;10.20;99.90;;;;;;5004711;28;20454;-82
2023/01/12 10:30:28;;;;;;;416.40;398.30;;;10.20;99.90;;;;;;5004357;28;20915;-82
2023/01/12 10:32:55;;;;;;;424.10;405.40;;;10.30;99.90;;;;;;5004931;28;20452;-82
2023/01/12 10:35:24;;;;;;;445.30;425.37;;;10.40;99.90;;;;;;5005068;28;20465;-82
2023/01/12 10:37:54;;;;;;;385.30;368.77;;;10.40;99.90;;;;;;5006136;28;20458;-82
2023/01/12 10:40:27;;;;;;;395.53;378.67;;;10.40;99.90;;;;;;5006833;28;20481;-82
2023/01/12 10:43:30;;;;;;;390.53;373.63;;;10.50;99.90;;;;;;5006324;28;20439;-82
2023/01/12 10:46:08;;;;;;;348.40;333.63;;;10.50;99.90;;;;;;5006385;28;20453;-83
2023/01/12 10:48:37;;;;;;;377.80;361.63;;;10.60;99.90;;;;;;5005851;28;20457;-82
2023/01/12 10:51:06;;;;;;;363.10;348.20;;;10.60;99.90;;;;;;5006896;28;20481;-82
2023/01/12 10:53:41;;;;;;;347.00;332.70;;;10.50;99.90;;;;;;5006393;28;20453;-83
2023/01/12 10:56:13;;;;;;;294.37;282.20;;;10.60;99.90;;;;;;5005579;28;20484;-83
2023/01/12 10:58:41;;;;;;;299.07;286.97;;;10.70;99.90;;;;;;5006547;28;20458;-82
2023/01/12 11:01:14;;;;;;;268.33;257.53;;;10.70;99.90;;;;;;5005953;28;21004;-83
2023/01/12 11:03:41;;;;;;;307.67;295.27;;;10.70;99.90;;;;;;5005406;28;20513;-82
2023/01/12 11:06:21;;;;;;;297.23;285.47;;;10.80;99.90;;;;;;5003757;28;20453;-83
2023/01/12 11:08:49;;;;;;;290.40;279.03;;;10.80;99.90;;;;;;5005145;28;20456;-83
2023/01/12 11:11:30;;;;;;;249.00;239.43;;;10.90;99.90;;;;;;5004805;28;20482;-82
2023/01/12 11:13:59;;;;;;;236.03;227.13;;;10.90;99.90;;;;;;5004049;28;20454;-82
2023/01/12 11:16:30;;;;;;;250.37;240.80;;;10.90;99.90;;;;;;5004209;28;20482;-82
2023/01/12 11:19:15;;;;;;;285.77;274.77;;;10.90;99.90;;;;;;5003522;28;20438;-83
2023/01/12 11:21:45;;;;;;;280.03;269.53;;;10.90;99.90;;;;;;4984034;28;20562;-83
2023/01/12 11:24:23;;;;;;;300.20;288.67;;;11.00;99.90;;;;;;4984134;28;20958;-83
2023/01/12 11:26:54;;;;;;;320.37;307.87;;;10.90;99.90;;;;;;4983356;28;20450;-83
2023/01/12 11:29:38;;;;;;;318.33;304.73;;;10.80;99.90;;;;;;4983461;28;20465;-83
2023/01/12 11:32:11;;;;;;;281.70;271.10;;;10.90;99.90;;;;;;4983949;28;20455;-82
2023/01/12 11:34:45;;;;;;;286.90;276.10;;;10.90;99.90;;;;;;4982538;28;20542;-82
2023/01/12 11:37:14;;;;;;;252.27;243.07;;;10.90;99.90;;;;;;4982523;28;20519;-83
2023/01/12 11:39:44;;;;;;;207.70;200.40;;;11.10;99.90;;;;;;4983043;28;20554;-82
2023/01/12 11:45:09;;;;;;;206.50;199.17;;;11.20;99.90;;;;;;4983259;28;20475;-82
2023/01/12 11:47:39;;;;;;;168.43;162.43;;;11.10;99.90;;;;;;4983753;28;20439;-83
2023/01/12 11:50:14;;;;;;;156.30;150.90;;;11.20;99.90;;;;;;4982227;28;20475;-82
2023/01/12 11:52:41;;;;;;;166.23;160.43;;;11.20;99.90;;;;;;4983111;28;20465;-82
2023/01/12 11:55:13;;;;;;;147.60;142.50;;;11.20;99.90;;;;;;4982689;28;20822;-82
2023/01/12 11:58:00;;;;;;;145.70;140.67;;;11.20;99.90;;;;;;4982795;28;20525;-82
2023/01/12 12:00:45;;;;;;;111.20;107.50;;;11.30;99.90;;;;;;4982544;28;20481;-82
2023/01/12 12:03:39;;;;;;;118.03;114.13;;;11.30;99.90;;;;;;4982973;28;20447;-82
2023/01/12 12:06:21;;;;;;;140.70;135.67;;;11.40;99.90;;;;;;4982130;28;20447;-83
2023/01/12 12:08:54;;;;;;;143.60;138.90;;;11.40;99.90;;;;;;4982492;28;20918;-82
2023/01/12 12:11:30;;;;;;;136.10;131.47;;;11.40;99.90;;;;;;4982607;28;20479;-82
2023/01/12 12:14:08;;;;;;;143.80;138.97;;;11.30;99.90;;;;;;4983401;28;20478;-83
2023/01/12 12:16:45;;;;;;;123.73;119.73;;;11.20;99.90;;;;;;4982904;28;20477;-82
2023/01/12 12:19:32;;;;;;;173.37;167.57;;;11.20;99.90;;;;;;4983813;28;20443;-83
2023/01/12 12:22:11;;;;;;;167.43;161.33;;;11.20;99.90;;;;;;4983993;28;20471;-83
2023/01/12 12:24:59;;;;;;;189.80;183.40;;;11.20;99.90;;;;;;4982507;28;20443;-82
2023/01/12 12:27:37;;;;;;;196.60;190.00;;;11.20;99.90;;;;;;4982692;28;20487;-82
2023/01/12 12:30:23;;;;;;;200.57;193.77;;;11.10;99.90;;;;;;4983295;28;20486;-83
2023/01/12 12:32:55;;;;;;;205.50;198.50;;;11.10;99.90;;;;;;4982974;28;20874;-82
2023/01/12 12:35:36;;;;;;;280.73;270.53;;;11.00;99.90;;;;;;4981614;28;20459;-82
2023/01/12 12:38:13;;;;;;;261.40;252.10;;;10.90;99.90;;;;;;4981959;28;20553;-82
2023/01/12 12:46:33;;;;;;;269.37;259.17;;;11.00;99.90;;;;;;4982965;28;20832;-83
2023/01/12 12:49:04;;;;;;;257.87;248.37;;;10.90;99.90;;;;;;4983243;28;20465;-84
2023/01/12 12:51:34;;;;;;;257.27;247.90;;;10.90;99.90;;;;;;4982533;28;20511;-81
2023/01/12 12:54:06;;;;;;;284.13;273.57;;;10.80;99.90;;;;;;4983209;28;20462;-82
2023/01/12 12:56:36;;;;;;;251.60;242.67;;;10.80;99.90;;;;;;4983200;28;20477;-82
2023/01/12 12:59:04;;;;;;;347.90;334.23;;;10.60;99.90;;;;;;4983664;28;20455;-82
2023/01/12 13:01:42;;;;;;;399.33;383.77;;;10.60;99.90;;;;;;4982486;28;20494;-82
2023/01/12 13:04:12;;;;;;;430.97;413.87;;;10.70;99.90;;;;;;4982036;28;20446;-82
2023/01/12 13:06:43;;;;;;;387.87;373.07;;;10.70;99.90;;;;;;4981862;28;20447;-82
2023/01/12 13:09:42;;;;;;;412.70;396.47;;;10.60;99.90;;;;;;4983232;28;20450;-83
2023/01/12 13:12:21;;;;;;;311.30;299.57;;;10.60;99.90;;;;;;4983872;28;20454;-82
2023/01/12 13:15:25;;;;;;;315.33;303.57;;;10.60;99.90;;;;;;4983657;28;20447;-82
2023/01/12 13:17:54;;;;;;;375.30;360.67;;;10.60;99.90;;;;;;4982508;28;20531;-82
2023/01/12 13:20:51;;;;;;;388.23;372.77;;;10.60;99.90;;;;;;4982494;28;20509;-83
2023/01/12 13:23:45;;;;;;;370.43;355.83;;;10.60;99.90;;;;;;4982022;28;20447;-83
2023/01/12 13:26:42;;;;;;;316.97;304.57;;;10.70;99.90;;;;;;4982561;28;20459;-84